Creston, California
Current Conditions -  °F | °C
As of 12:02 PM on Friday 19 Dec 2014 (Local Time) from KPRB Reporting Station
Broken Clouds Broken Clouds  
Wind Chill: 55°   Ceiling: 3600
Heat Index: 55°   Visibility: 10mi
Dew Point: 49°   Wind: 3mph
Humidity: 80%   Direction: 140°SE
Pressure: 30.2"   Gusts: NA
Location:  35.52°N, 120.52°W
Report Text: KPRB 192002Z AUTO 14003KT 10SM SCT019 BKN036 13/09 A3020 RMK AO2 T01280094 TSNO
Loading
Personal Weather Stations






























Interactive Weather Map New forecast layout! Learn more

10-Day Weather Forecast

Advertisements
Track Severe Weather on mobile